createdAt,value
2023-10-26T00:00:39.105Z,96855.59
2023-10-26T00:03:06.089Z,96854.50
2023-10-26T00:05:32.860Z,96847.16
2023-10-26T00:07:59.377Z,96852.56
2023-10-26T00:10:26.037Z,96852.22
2023-10-26T00:12:52.805Z,96857.66
2023-10-26T00:15:19.446Z,96851.88
2023-10-26T00:17:46.557Z,96861.59
2023-10-26T00:20:13.477Z,96861.25
2023-10-26T00:22:40.130Z,96858.53
2023-10-26T00:25:07.367Z,96851.25
2023-10-26T00:27:34.864Z,96860.47
2023-10-26T00:30:01.627Z,96865.09
2023-10-26T00:32:28.412Z,96856.16
2023-10-26T00:34:55.018Z,96858.09
2023-10-26T00:37:21.627Z,96851.78
2023-10-26T00:39:48.176Z,96841.50
2023-10-26T00:42:14.755Z,96844.53
2023-10-26T00:44:41.533Z,96851.78
2023-10-26T00:47:08.255Z,96846.25
2023-10-26T00:49:35.085Z,96856.66
2023-10-26T00:52:03.770Z,96853.50
2023-10-26T00:54:33.086Z,96854.63
2023-10-26T00:57:00.333Z,96846.94
2023-10-26T00:59:30.649Z,96850.31
2023-10-26T01:01:58.629Z,96850.66
2023-10-26T01:04:25.384Z,96854.50
2023-10-26T01:06:52.004Z,96850.56
2023-10-26T01:09:18.766Z,96848.97
2023-10-26T01:11:45.717Z,96856.00
2023-10-26T01:14:12.618Z,96854.38
2023-10-26T01:16:40.837Z,96859.03
2023-10-26T01:19:09.086Z,96848.88
2023-10-26T01:21:53.177Z,96858.13
2023-10-26T01:24:20.367Z,96855.78
2023-10-26T01:26:47.288Z,96854.97
2023-10-26T01:29:13.849Z,96856.09
2023-10-26T01:31:40.469Z,96855.31
2023-10-26T01:34:07.104Z,96861.19
2023-10-26T01:36:33.670Z,96856.56
2023-10-26T01:39:02.244Z,96855.06
2023-10-26T01:41:33.456Z,96852.81
2023-10-26T01:44:02.105Z,96859.50
2023-10-26T01:46:28.651Z,96852.94
2023-10-26T01:48:55.510Z,96849.09
2023-10-26T01:51:22.120Z,96851.34
2023-10-26T01:53:48.682Z,96848.97
2023-10-26T01:56:15.372Z,96845.38
2023-10-26T01:58:41.968Z,96848.28
2023-10-26T02:01:08.465Z,96838.78
2023-10-26T02:03:35.033Z,96844.47
2023-10-26T02:06:04.014Z,96847.41
2023-10-26T02:08:30.795Z,96845.59
2023-10-26T02:10:57.528Z,96840.81
2023-10-26T02:13:24.099Z,96849.31
2023-10-26T02:15:50.665Z,96849.66
2023-10-26T02:18:17.249Z,96853.94
2023-10-26T02:20:43.865Z,96852.47
2023-10-26T02:23:10.563Z,96855.66
2023-10-26T02:25:37.038Z,96858.81
2023-10-26T02:28:04.330Z,96857.69
2023-10-26T02:30:30.882Z,96851.91
2023-10-26T02:32:57.586Z,96845.34
2023-10-26T02:35:24.224Z,96846.47
2023-10-26T02:37:50.909Z,96853.81
2023-10-26T02:40:17.492Z,96856.53
2023-10-26T02:42:44.128Z,96858.13
2023-10-26T02:45:10.819Z,96860.50
2023-10-26T02:47:39.061Z,96858.91
2023-10-26T02:50:07.546Z,96858.13
2023-10-26T02:52:34.138Z,96849.63
2023-10-26T02:55:00.846Z,96849.63
2023-10-26T02:57:27.532Z,96856.66
2023-10-26T02:59:55.130Z,96849.63
2023-10-26T03:02:21.754Z,96848.06
2023-10-26T03:04:48.476Z,96849.63
2023-10-26T03:07:22.006Z,96844.56
2023-10-26T03:09:49.034Z,96845.69
2023-10-26T03:12:15.895Z,96840.63
2023-10-26T03:14:42.773Z,96847.16
2023-10-26T03:17:09.520Z,96846.38
2023-10-26T03:19:36.111Z,96849.88
2023-10-26T03:22:02.818Z,96848.75
2023-10-26T03:24:29.498Z,96853.47
2023-10-26T03:26:56.095Z,96848.06
2023-10-26T03:29:22.792Z,96849.63
2023-10-26T03:31:49.422Z,96850.78
2023-10-26T03:34:15.971Z,96848.06
2023-10-26T03:36:42.688Z,96841.84
2023-10-26T03:39:09.423Z,96839.94
2023-10-26T03:41:36.144Z,96851.91
2023-10-26T03:44:02.785Z,96841.75
2023-10-26T03:46:29.343Z,96843.97
2023-10-26T03:48:55.939Z,96847.38
2023-10-26T03:51:22.734Z,96849.66
2023-10-26T03:53:49.579Z,96854.59
2023-10-26T03:56:16.153Z,96854.50
2023-10-26T03:58:42.715Z,96856.75
2023-10-26T04:01:09.264Z,96851.22
2023-10-26T04:03:36.065Z,96841.72
2023-10-26T04:06:02.704Z,96853.91
2023-10-26T04:08:29.250Z,96847.88
2023-10-26T04:10:55.791Z,96856.69
2023-10-26T04:13:22.357Z,96849.56
2023-10-26T04:15:50.545Z,96835.91
2023-10-26T04:18:18.646Z,96821.56
2023-10-26T04:20:45.454Z,96821.09
2023-10-26T04:23:11.960Z,96835.00
2023-10-26T04:25:52.998Z,96839.16
2023-10-26T04:28:20.904Z,96832.50
2023-10-26T04:30:50.791Z,96831.69
2023-10-26T04:33:18.550Z,96828.97
2023-10-26T04:35:46.314Z,96832.16
2023-10-26T04:38:13.205Z,96835.53
2023-10-26T04:40:40.959Z,96829.66
2023-10-26T04:43:08.396Z,96836.66
2023-10-26T04:45:35.383Z,96844.34
2023-10-26T04:48:02.600Z,96834.84
2023-10-26T04:50:31.408Z,96821.97
2023-10-26T04:53:03.620Z,96830.09
2023-10-26T04:55:35.217Z,96828.50
2023-10-26T04:58:03.041Z,96820.38
2023-10-26T05:00:29.862Z,96817.66
2023-10-26T05:02:56.668Z,96821.84
2023-10-26T05:05:23.339Z,96816.75
2023-10-26T05:07:50.059Z,96813.25
2023-10-26T05:10:16.658Z,96815.63
2023-10-26T05:12:43.612Z,96800.50
2023-10-26T05:15:10.388Z,96809.75
2023-10-26T05:17:38.430Z,96805.00
2023-10-26T05:20:06.306Z,96808.38
2023-10-26T05:22:35.753Z,96807.91
2023-10-26T05:25:05.486Z,96814.00
2023-10-26T05:27:37.115Z,96812.75
2023-10-26T05:30:05.880Z,96802.72
2023-10-26T05:32:32.562Z,96804.63
2023-10-26T05:34:59.341Z,96804.63
2023-10-26T05:37:26.035Z,96803.84
2023-10-26T05:39:52.609Z,96805.44
2023-10-26T05:42:19.383Z,96798.88
2023-10-26T05:44:46.037Z,96791.22
2023-10-26T05:47:12.525Z,96786.59
2023-10-26T05:49:39.135Z,96783.22
2023-10-26T05:52:06.007Z,96795.75
2023-10-26T05:54:32.776Z,96781.88
2023-10-26T05:56:59.724Z,96781.53
2023-10-26T05:59:27.597Z,96783.22
2023-10-26T06:01:54.234Z,96780.22
2023-10-26T06:04:21.070Z,96780.22
2023-10-26T06:06:47.884Z,96767.44
2023-10-26T06:09:14.540Z,96763.97
2023-10-26T06:11:41.076Z,96777.94
2023-10-26T06:14:07.696Z,96782.22
2023-10-26T06:16:34.256Z,96775.34
2023-10-26T06:19:00.770Z,96784.75
2023-10-26T06:21:28.525Z,96780.91
2023-10-26T06:23:55.334Z,96775.13
2023-10-26T06:26:21.993Z,96775.28
2023-10-26T06:28:48.605Z,96784.97
2023-10-26T06:31:15.986Z,96786.56
2023-10-26T06:33:43.946Z,96788.91
2023-10-26T06:36:14.067Z,96794.00
2023-10-26T06:38:41.240Z,96781.25
2023-10-26T06:41:10.470Z,96791.41
2023-10-26T06:43:38.311Z,96785.31
2023-10-26T06:46:05.387Z,96792.44
2023-10-26T06:48:32.051Z,96784.09
2023-10-26T06:51:00.854Z,96778.78
2023-10-26T06:53:28.448Z,96785.47
2023-10-26T06:55:54.919Z,96780.50
2023-10-26T06:58:21.388Z,96778.22
2023-10-26T07:00:52.609Z,96772.81
2023-10-26T07:03:20.096Z,96778.69
2023-10-26T07:05:48.795Z,96779.94
2023-10-26T07:08:15.440Z,96783.44
2023-10-26T07:10:41.983Z,96787.84
2023-10-26T07:13:09.269Z,96785.56
2023-10-26T07:15:37.345Z,96791.13
2023-10-26T07:18:05.236Z,96783.09
2023-10-26T07:20:31.936Z,96777.44
2023-10-26T07:22:58.529Z,96781.03
2023-10-26T07:25:25.037Z,96787.38
2023-10-26T07:27:51.824Z,96776.31
2023-10-26T07:30:18.630Z,96785.34
2023-10-26T07:32:45.253Z,96786.59
2023-10-26T07:35:12.110Z,96791.75
2023-10-26T07:37:39.117Z,96789.16
2023-10-26T07:40:29.038Z,96790.09
2023-10-26T07:42:53.704Z,96783.50
2023-10-26T07:45:20.379Z,96784.75
2023-10-26T07:47:47.712Z,96789.94
2023-10-26T07:50:18.005Z,96777.94
2023-10-26T07:52:44.551Z,96774.44
2023-10-26T07:55:11.250Z,96776.38
2023-10-26T07:57:38.335Z,96774.88
2023-10-26T08:00:06.076Z,96776.16
2023-10-26T08:02:35.260Z,96765.38
2023-10-26T08:05:02.563Z,96769.00
2023-10-26T08:07:29.200Z,96766.28
2023-10-26T08:09:55.778Z,96772.16
2023-10-26T08:12:22.322Z,96767.50
2023-10-26T08:16:29.663Z,96763.22
2023-10-26T08:17:36.688Z,96749.66
2023-10-26T08:20:05.642Z,96758.22
2023-10-26T08:22:32.839Z,96762.88
2023-10-26T08:25:00.626Z,96755.88
2023-10-26T08:27:27.152Z,96769.56
2023-10-26T08:29:53.828Z,96771.56
2023-10-26T08:32:21.102Z,96775.84
2023-10-26T08:34:48.012Z,96770.88
2023-10-26T08:37:14.705Z,96775.31
2023-10-26T08:39:41.868Z,96771.56
2023-10-26T08:42:09.769Z,96768.94
2023-10-26T08:44:37.670Z,96768.25
2023-10-26T08:47:05.372Z,96777.63
2023-10-26T08:49:33.294Z,96778.53
2023-10-26T08:52:00.865Z,96777.84
2023-10-26T08:54:28.089Z,96794.56
2023-10-26T08:56:55.444Z,96802.03
2023-10-26T08:59:24.431Z,96792.03
2023-10-26T09:01:51.415Z,96789.78
2023-10-26T09:06:49.136Z,96790.66
2023-10-26T09:09:16.836Z,96786.38
2023-10-26T09:11:47.969Z,96788.66
2023-10-26T09:14:15.756Z,96778.47
2023-10-26T09:16:44.902Z,96786.63
2023-10-26T09:19:19.583Z,96789.31
2023-10-26T09:21:53.620Z,96774.63
2023-10-26T09:24:22.538Z,96779.59
2023-10-26T09:26:49.551Z,96791.25
2023-10-26T09:29:16.205Z,96790.47
2023-10-26T09:31:54.552Z,96788.09
2023-10-26T09:34:27.775Z,96791.84
2023-10-26T09:37:04.614Z,96785.75
2023-10-26T09:39:36.458Z,96772.34
2023-10-26T09:42:04.236Z,96784.91
2023-10-26T09:44:31.261Z,96782.06
2023-10-26T09:46:58.960Z,96787.06
2023-10-26T09:49:27.525Z,96795.03
2023-10-26T09:51:55.131Z,96813.38
2023-10-26T09:54:25.920Z,96827.88
2023-10-26T09:57:00.701Z,96829.25
2023-10-26T09:59:29.130Z,96848.72
2023-10-26T10:01:55.835Z,96833.81
2023-10-26T10:04:38.250Z,96829.03
2023-10-26T10:07:05.415Z,96807.56
2023-10-26T10:09:32.968Z,96778.03
2023-10-26T10:12:05.887Z,96793.78
2023-10-26T10:14:47.996Z,96780.22
2023-10-26T10:17:19.159Z,96779.53
2023-10-26T10:19:48.294Z,96783.38
2023-10-26T10:22:40.128Z,96792.75
2023-10-26T10:25:10.538Z,96797.03
2023-10-26T10:28:00.225Z,96819.88
2023-10-26T10:30:31.513Z,96818.66
2023-10-26T10:32:58.587Z,96810.53
2023-10-26T10:35:47.247Z,96804.41
2023-10-26T10:38:17.216Z,96786.66
2023-10-26T10:40:56.231Z,96793.31
2023-10-26T10:43:33.863Z,96790.72
2023-10-26T10:46:10.246Z,96789.34
2023-10-26T10:48:37.288Z,96798.38
2023-10-26T10:51:04.740Z,96794.66
2023-10-26T10:53:32.697Z,96801.31
2023-10-26T10:55:59.689Z,96799.94
2023-10-26T10:58:36.981Z,96793.50
2023-10-26T11:01:03.548Z,96797.53
2023-10-26T11:03:30.152Z,96790.97
2023-10-26T11:05:56.747Z,96788.63
2023-10-26T11:08:23.514Z,96787.81
2023-10-26T11:10:50.957Z,96794.03
2023-10-26T11:13:22.641Z,96787.81
2023-10-26T11:15:49.294Z,96779.41
2023-10-26T11:18:16.106Z,96773.94
2023-10-26T11:20:49.616Z,96771.59
2023-10-26T11:23:22.522Z,96778.09
2023-10-26T11:25:49.169Z,96779.50
2023-10-26T11:28:15.803Z,96780.06
2023-10-26T11:30:50.699Z,96775.75
2023-10-26T11:33:38.630Z,96781.38
2023-10-26T11:36:13.796Z,96770.19
2023-10-26T11:38:50.628Z,96772.38
2023-10-26T11:41:24.543Z,96787.22
2023-10-26T11:43:51.469Z,96782.91
2023-10-26T11:46:35.294Z,96780.19
2023-10-26T11:49:04.327Z,96778.72
2023-10-26T11:51:31.851Z,96784.22
2023-10-26T11:54:11.709Z,96781.00
2023-10-26T11:56:38.422Z,96757.59
2023-10-26T11:59:05.279Z,96744.81
2023-10-26T12:01:31.962Z,96736.56
2023-10-26T12:03:58.724Z,96739.44
2023-10-26T12:06:25.280Z,96722.50
2023-10-26T12:08:51.815Z,96728.19
2023-10-26T12:11:18.451Z,96718.78
2023-10-26T12:13:44.953Z,96717.25
2023-10-26T12:16:11.594Z,96701.06
2023-10-26T12:18:38.212Z,96706.56
2023-10-26T12:21:04.752Z,96712.97
2023-10-26T12:23:31.632Z,96720.31
2023-10-26T12:25:58.231Z,96712.59
2023-10-26T12:28:27.066Z,96704.25
2023-10-26T12:30:55.876Z,96698.38
2023-10-26T12:33:22.587Z,96697.47
2023-10-26T12:35:49.212Z,96698.44
2023-10-26T12:38:15.833Z,96691.53
2023-10-26T12:40:42.506Z,96688.94
2023-10-26T12:43:09.013Z,96703.72
2023-10-26T12:45:36.957Z,96684.94
2023-10-26T12:48:04.254Z,96679.44
2023-10-26T12:50:31.608Z,96673.69
2023-10-26T12:52:58.302Z,96669.56
2023-10-26T12:55:25.126Z,96680.47
2023-10-26T12:57:53.261Z,96675.13
2023-10-26T13:00:20.860Z,96659.66
2023-10-26T13:02:47.664Z,96664.97
2023-10-26T13:05:14.295Z,96659.84
2023-10-26T13:07:40.924Z,96665.94
2023-10-26T13:10:08.424Z,96662.25
2023-10-26T13:12:35.313Z,96655.38
2023-10-26T13:15:05.445Z,96653.97
2023-10-26T13:17:32.999Z,96652.06
2023-10-26T13:19:59.881Z,96644.66
2023-10-26T13:22:28.826Z,96644.25
2023-10-26T13:24:55.969Z,96648.06
2023-10-26T13:27:23.117Z,96649.50
2023-10-26T13:29:50.358Z,96654.88
2023-10-26T13:32:17.052Z,96646.56
2023-10-26T13:34:44.044Z,96646.03
2023-10-26T13:37:10.776Z,96623.94
2023-10-26T13:39:38.674Z,96622.59
2023-10-26T13:42:05.431Z,96629.50
2023-10-26T13:44:32.123Z,96612.31
2023-10-26T13:46:58.816Z,96620.06
2023-10-26T13:49:25.578Z,96609.91
2023-10-26T13:51:52.884Z,96613.00
2023-10-26T13:54:19.524Z,96613.69
2023-10-26T13:56:46.239Z,96607.84
2023-10-26T13:59:12.814Z,96618.31
2023-10-26T14:01:39.485Z,96611.72
2023-10-26T14:04:06.626Z,96609.78
2023-10-26T14:06:33.320Z,96607.41
2023-10-26T14:08:59.973Z,96603.47
2023-10-26T14:11:27.935Z,96605.41
2023-10-26T14:13:54.962Z,96600.25
2023-10-26T14:16:21.919Z,96600.97
2023-10-26T14:18:51.361Z,96595.91
2023-10-26T14:21:18.067Z,96602.56
2023-10-26T14:23:44.928Z,96593.22
2023-10-26T14:26:11.718Z,96585.44
2023-10-26T14:28:38.469Z,96578.41
2023-10-26T14:31:05.567Z,96567.09
2023-10-26T14:33:32.416Z,96581.41
2023-10-26T14:35:59.160Z,96589.97
2023-10-26T14:38:25.868Z,96590.34
2023-10-26T14:40:56.726Z,96589.53
2023-10-26T14:43:24.363Z,96582.50
2023-10-26T14:45:51.031Z,96580.59
2023-10-26T14:48:17.634Z,96586.81
2023-10-26T14:50:46.261Z,96586.03
2023-10-26T14:53:13.612Z,96585.22
2023-10-26T14:58:25.785Z,96577.41
2023-10-26T15:00:52.369Z,96573.53
2023-10-26T15:03:18.939Z,96589.53
2023-10-26T15:05:46.156Z,96587.59
2023-10-26T15:08:12.762Z,96578.28
2023-10-26T15:10:45.905Z,96581.38
2023-10-26T15:13:12.515Z,96575.47
2023-10-26T15:15:39.630Z,96591.41
2023-10-26T15:18:08.617Z,96578.56
2023-10-26T15:20:36.248Z,96592.56
2023-10-26T15:23:02.990Z,96582.81
2023-10-26T15:25:29.761Z,96582.81
2023-10-26T15:27:58.352Z,96583.53
2023-10-26T15:30:26.081Z,96590.53
2023-10-26T15:32:52.685Z,96585.03
2023-10-26T15:35:21.343Z,96589.72
2023-10-26T15:37:47.968Z,96588.13
2023-10-26T15:40:14.636Z,96578.41
2023-10-26T15:42:41.281Z,96587.41
2023-10-26T15:45:08.503Z,96592.13
2023-10-26T15:47:35.303Z,96593.59
2023-10-26T15:50:02.013Z,96602.91
2023-10-26T15:52:28.718Z,96602.91
2023-10-26T15:54:55.233Z,96604.34
2023-10-26T15:57:22.512Z,96607.06
2023-10-26T15:59:49.339Z,96611.72
2023-10-26T16:02:15.812Z,96618.25
2023-10-26T16:04:42.894Z,96619.38
2023-10-26T16:07:09.621Z,96615.00
2023-10-26T16:09:37.523Z,96620.41
2023-10-26T16:12:04.675Z,96623.53
2023-10-26T16:14:31.119Z,96623.53
2023-10-26T16:16:57.637Z,96628.56
2023-10-26T16:19:24.407Z,96624.09
2023-10-26T16:21:50.969Z,96636.13
2023-10-26T16:24:19.103Z,96631.44
2023-10-26T16:26:45.619Z,96624.25
2023-10-26T16:29:12.064Z,96632.75
2023-10-26T16:31:38.677Z,96638.22
2023-10-26T16:34:05.266Z,96642.00
2023-10-26T16:36:31.747Z,96636.53
2023-10-26T16:38:58.409Z,96636.09
2023-10-26T16:41:25.225Z,96641.09
2023-10-26T16:43:53.178Z,96642.63
2023-10-26T16:46:21.269Z,96635.53
2023-10-26T16:48:47.953Z,96645.25
2023-10-26T16:51:14.624Z,96635.09
2023-10-26T16:53:41.579Z,96641.16
2023-10-26T16:56:09.540Z,96650.13
2023-10-26T16:58:36.134Z,96646.59
2023-10-26T17:01:12.217Z,96650.38
2023-10-26T17:03:39.211Z,96657.41
2023-10-26T17:06:05.899Z,96652.69
2023-10-26T17:08:32.816Z,96659.69
2023-10-26T17:10:59.696Z,96661.19
2023-10-26T17:13:26.308Z,96652.69
2023-10-26T17:15:54.141Z,96647.25
2023-10-26T17:18:22.625Z,96653.47
2023-10-26T17:20:50.152Z,96651.88
2023-10-26T17:23:16.874Z,96651.97
2023-10-26T17:25:43.643Z,96649.59
2023-10-26T17:28:10.212Z,96644.16
2023-10-26T17:30:38.059Z,96641.06
2023-10-26T17:33:05.118Z,96640.28
2023-10-26T17:35:31.665Z,96637.31
2023-10-26T17:37:58.152Z,96641.94
2023-10-26T17:40:25.202Z,96643.47
2023-10-26T17:42:52.629Z,96638.44
2023-10-26T17:45:19.951Z,96639.59
2023-10-26T17:47:46.835Z,96643.47
2023-10-26T17:50:13.595Z,96645.66
2023-10-26T17:52:40.196Z,96651.25
2023-10-26T17:55:06.912Z,96645.38
2023-10-26T17:57:33.581Z,96638.66
2023-10-26T18:00:00.152Z,96646.81
2023-10-26T18:02:26.879Z,96645.66
2023-10-26T18:04:53.538Z,96645.56
2023-10-26T18:07:20.127Z,96647.94
2023-10-26T18:09:47.395Z,96655.75
2023-10-26T18:12:15.872Z,96654.50
2023-10-26T18:14:42.740Z,96664.69
2023-10-26T18:17:09.350Z,96649.06
2023-10-26T18:19:35.899Z,96648.72
2023-10-26T18:22:02.523Z,96645.56
2023-10-26T18:24:32.796Z,96646.28
2023-10-26T18:26:59.464Z,96640.06
2023-10-26T18:29:26.394Z,96639.19
2023-10-26T18:31:56.988Z,96635.25
2023-10-26T18:34:23.693Z,96641.47
2023-10-26T18:36:50.484Z,96642.28
2023-10-26T18:39:17.305Z,96647.59
2023-10-26T18:41:45.564Z,96648.34
2023-10-26T18:44:12.059Z,96650.63
2023-10-26T18:46:41.303Z,96645.88
2023-10-26T18:49:08.146Z,96652.88
2023-10-26T18:51:34.610Z,96651.25
2023-10-26T18:54:01.093Z,96638.59
2023-10-26T18:56:27.561Z,96646.44
2023-10-26T18:58:56.062Z,96638.59
2023-10-26T19:01:27.502Z,96634.25
2023-10-26T19:04:02.139Z,96638.53
2023-10-26T19:06:32.201Z,96632.22
2023-10-26T19:08:59.429Z,96622.06
2023-10-26T19:11:26.617Z,96630.13
2023-10-26T19:13:53.312Z,96639.06
2023-10-26T19:16:19.983Z,96642.13
2023-10-26T19:18:46.722Z,96643.38
2023-10-26T19:21:13.311Z,96645.19
2023-10-26T19:23:39.769Z,96654.50
2023-10-26T19:26:06.350Z,96642.06
2023-10-26T19:28:32.990Z,96646.25
2023-10-26T19:30:59.763Z,96643.53
2023-10-26T19:33:28.248Z,96649.31
2023-10-26T19:35:54.859Z,96649.31
2023-10-26T19:38:21.278Z,96641.09
2023-10-26T19:40:50.160Z,96644.13
2023-10-26T19:43:16.895Z,96640.91
2023-10-26T19:45:43.634Z,96646.00
2023-10-26T19:48:10.313Z,96641.72
2023-10-26T19:50:36.886Z,96643.97
2023-10-26T19:53:03.766Z,96642.81
2023-10-26T19:55:30.271Z,96637.66
2023-10-26T19:57:57.009Z,96637.66
2023-10-26T20:00:23.860Z,96641.16
2023-10-26T20:02:50.487Z,96630.19
2023-10-26T20:05:20.768Z,96629.78
2023-10-26T20:07:47.305Z,96623.91
2023-10-26T20:10:13.894Z,96617.16
2023-10-26T20:12:40.422Z,96618.38
2023-10-26T20:15:10.473Z,96621.09
2023-10-26T20:17:36.989Z,96618.72
2023-10-26T20:20:07.913Z,96621.44
2023-10-26T20:22:35.058Z,96613.31
2023-10-26T20:25:01.871Z,96617.16
2023-10-26T20:27:28.615Z,96622.66
2023-10-26T20:29:55.249Z,96617.59
2023-10-26T20:32:21.784Z,96607.88
2023-10-26T20:34:48.353Z,96599.72
2023-10-26T20:37:15.128Z,96602.44
2023-10-26T20:39:44.494Z,96598.56
2023-10-26T20:42:11.498Z,96597.78
2023-10-26T20:44:38.608Z,96584.13
2023-10-26T20:47:06.269Z,96587.34
2023-10-26T20:49:34.016Z,96570.56
2023-10-26T20:52:02.076Z,96568.28
2023-10-26T20:54:30.215Z,96571.00
2023-10-26T20:56:56.776Z,96558.88
2023-10-26T20:59:23.631Z,96564.31
2023-10-26T21:01:50.231Z,96560.38
2023-10-26T21:04:17.126Z,96555.31
2023-10-26T21:06:47.390Z,96547.06
2023-10-26T21:09:15.524Z,96541.63
2023-10-26T21:11:42.261Z,96545.59
2023-10-26T21:14:12.746Z,96539.38
2023-10-26T21:16:40.025Z,96542.50
2023-10-26T21:19:06.978Z,96536.19
2023-10-26T21:21:33.469Z,96535.94
2023-10-26T21:23:59.951Z,96533.06
2023-10-26T21:26:27.087Z,96534.97
2023-10-26T21:28:55.438Z,96525.53
2023-10-26T21:31:24.775Z,96531.06
2023-10-26T21:33:54.417Z,96528.75
2023-10-26T21:36:21.609Z,96528.34
2023-10-26T21:38:53.524Z,96518.16
2023-10-26T21:41:23.021Z,96529.97
2023-10-26T21:43:54.142Z,96524.13
2023-10-26T21:46:21.184Z,96522.97
2023-10-26T21:48:54.257Z,96509.75
2023-10-26T21:51:21.009Z,96503.53
2023-10-26T21:53:47.638Z,96507.41
2023-10-26T21:56:33.517Z,96512.91
2023-10-26T21:59:08.913Z,96505.00
2023-10-26T22:01:35.729Z,96517.13
2023-10-26T22:04:21.026Z,96514.75
2023-10-26T22:06:49.050Z,96509.22
2023-10-26T22:09:16.150Z,96510.38
2023-10-26T22:11:42.690Z,96501.44
2023-10-26T22:14:09.124Z,96496.00
2023-10-26T22:16:35.771Z,96499.88
2023-10-26T22:19:02.347Z,96500.16
2023-10-26T22:21:28.887Z,96492.38
2023-10-26T22:23:55.475Z,96481.53
2023-10-26T22:26:22.292Z,96478.44
2023-10-26T22:28:48.807Z,96476.09
2023-10-26T22:31:15.585Z,96458.16
2023-10-26T22:33:42.088Z,96461.66
2023-10-26T22:36:09.210Z,96452.63
2023-10-26T22:38:36.840Z,96451.13
2023-10-26T22:41:06.654Z,96454.66
2023-10-26T22:43:33.105Z,96457.38
2023-10-26T22:45:59.676Z,96442.94
2023-10-26T22:48:26.894Z,96443.34
2023-10-26T22:50:53.309Z,96446.06
2023-10-26T22:53:19.838Z,96444.84
2023-10-26T22:55:47.114Z,96444.06
2023-10-26T22:58:13.737Z,96447.94
2023-10-26T23:00:40.264Z,96443.63
2023-10-26T23:03:06.730Z,96447.47
2023-10-26T23:05:34.462Z,96456.31
2023-10-26T23:08:01.602Z,96448.19
2023-10-26T23:10:28.198Z,96452.47
2023-10-26T23:12:54.745Z,96450.53
2023-10-26T23:15:21.210Z,96441.63
2023-10-26T23:17:47.883Z,96441.25
2023-10-26T23:20:14.410Z,96436.63
2023-10-26T23:22:40.949Z,96442.75
2023-10-26T23:25:09.487Z,96444.69
2023-10-26T23:27:36.416Z,96440.66
2023-10-26T23:30:03.188Z,96453.00
2023-10-26T23:32:29.732Z,96449.16
2023-10-26T23:34:58.049Z,96444.88
2023-10-26T23:37:24.830Z,96451.41
2023-10-26T23:40:00.868Z,96453.00
2023-10-26T23:42:27.406Z,96449.94
2023-10-26T23:44:54.116Z,96459.28
2023-10-26T23:47:20.647Z,96462.38
2023-10-26T23:49:47.178Z,96465.50
2023-10-26T23:52:13.692Z,96464.66
2023-10-26T23:54:40.297Z,96474.72
2023-10-26T23:57:06.808Z,96473.13
2023-10-26T23:59:33.496Z,96470.41
